Realitos, Texas
Current Conditions -  °F | °C
As of 3:55 AM on Monday 22 Dec 2014 (Local Time) from KHBV Reporting Station
Heavy Rain Heavy Rain  
Wind Chill: 58°   Ceiling: 400
Heat Index: 58°   Visibility: 4mi
Dew Point: 57°   Wind: 12mph
Humidity: 97%   Direction: 180°S
Pressure: 29.78"   Gusts: NA
Location:  27.45°N, 98.53°W
Report Text: KHBV 220955Z AUTO 18010KT 4SM +RA OVC004 15/14 A2978 RMK AO2 T01450140
Loading
Personal Weather Stations






























Interactive Weather Map New forecast layout! Learn more

10-Day Weather Forecast

Advertisements
Track Severe Weather on mobile